CCM210 LFKC-LIRA
Flight info
| Callsign | CCM210 |
|---|---|
| Flight time | 0h 36m |
| Altitude | 29000 |
| Route | CAPCO DCT MIRSA DCT ELB/N0422F280 DCT ELKAP |
| Aircraft | A319/M-SDE3FGHIRWY/LB1 |
Departure
| Time | 2026-04-30 18:53 |
|---|---|
| Airport | Calvi Sainte Catherine Airport (LFKC) |
Arrival
| Time | 2026-04-30 19:29 |
|---|---|
| Airport | Ciampino–G. B. Pastine International Airport (LIRA) |
| Time | Latitude | Longitude | Altitude | Speed | Heading |
|---|---|---|---|---|---|
| 2026-04-30 18:19 | 42.52566 | 8.79079 | 175 ft | 0 kts | 300° |
| 2026-04-30 18:45 | 42.52509 | 8.79162 | 180 ft | 12 kts | 186° |
| 2026-04-30 18:45 | 42.52461 | 8.79161 | 183 ft | 4 kts | 166° |
| 2026-04-30 18:45 | 42.52447 | 8.79170 | 184 ft | 0 kts | 154° |
| 2026-04-30 18:46 | 42.52442 | 8.79176 | 185 ft | 0 kts | 115° |
| 2026-04-30 18:46 | 42.52440 | 8.79184 | 185 ft | 0 kts | 101° |
| 2026-04-30 18:48 | 42.52439 | 8.79188 | 185 ft | 1 kts | 101° |
| 2026-04-30 18:48 | 42.52436 | 8.79251 | 184 ft | 9 kts | 103° |
| 2026-04-30 18:48 | 42.52376 | 8.79287 | 188 ft | 9 kts | 187° |
| 2026-04-30 18:48 | 42.52313 | 8.79289 | 192 ft | 10 kts | 178° |
| 2026-04-30 18:49 | 42.52232 | 8.79288 | 198 ft | 11 kts | 180° |
| 2026-04-30 18:49 | 42.52171 | 8.79279 | 202 ft | 5 kts | 219° |
| 2026-04-30 18:49 | 42.52155 | 8.79224 | 203 ft | 6 kts | 256° |
| 2026-04-30 18:49 | 42.52129 | 8.79185 | 204 ft | 4 kts | 207° |
| 2026-04-30 18:50 | 42.52108 | 8.79179 | 206 ft | 3 kts | 189° |
| 2026-04-30 18:50 | 42.52059 | 8.79197 | 208 ft | 7 kts | 124° |
| 2026-04-30 18:50 | 42.52049 | 8.79271 | 207 ft | 8 kts | 78° |
| 2026-04-30 18:50 | 42.52102 | 8.79302 | 205 ft | 6 kts | 358° |
| 2026-04-30 18:51 | 42.52122 | 8.79302 | 204 ft | 1 kts | 359° |
| 2026-04-30 18:51 | 42.52142 | 8.79302 | 203 ft | 0 kts | 359° |
| 2026-04-30 18:51 | 42.52165 | 8.79301 | 203 ft | 5 kts | 359° |
| 2026-04-30 18:51 | 42.52177 | 8.79301 | 202 ft | 0 kts | 359° |
| 2026-04-30 18:52 | 42.52180 | 8.79301 | 202 ft | 2 kts | 359° |
| 2026-04-30 18:52 | 42.52421 | 8.79296 | 185 ft | 77 kts | 358° |
| 2026-04-30 18:52 | 42.53313 | 8.79291 | 127 ft | 156 kts | 359° |
| 2026-04-30 18:53 | 42.54598 | 8.79299 | 532 ft | 183 kts | 359° |
| 2026-04-30 18:53 | 42.55825 | 8.79266 | 1437 ft | 179 kts | 0° |
| 2026-04-30 18:53 | 42.57124 | 8.79164 | 2410 ft | 181 kts | 360° |
| 2026-04-30 18:53 | 42.58454 | 8.78990 | 3387 ft | 179 kts | 359° |
| 2026-04-30 18:54 | 42.59704 | 8.78758 | 4251 ft | 178 kts | 356° |
| 2026-04-30 18:54 | 42.61069 | 8.78431 | 5174 ft | 177 kts | 353° |
| 2026-04-30 18:54 | 42.62444 | 8.78020 | 6083 ft | 177 kts | 350° |
| 2026-04-30 18:54 | 42.63776 | 8.77540 | 6962 ft | 176 kts | 347° |
| 2026-04-30 18:55 | 42.65100 | 8.77281 | 7932 ft | 165 kts | 23° |
| 2026-04-30 18:55 | 42.65811 | 8.80318 | 9324 ft | 174 kts | 76° |
| 2026-04-30 18:55 | 42.66468 | 8.82019 | 9807 ft | 186 kts | 48° |
| 2026-04-30 18:56 | 42.68912 | 8.84902 | 11025 ft | 221 kts | 40° |
| 2026-04-30 18:56 | 42.70105 | 8.86503 | 11635 ft | 239 kts | 44° |
| 2026-04-30 18:56 | 42.71405 | 8.88503 | 12296 ft | 258 kts | 46° |
| 2026-04-30 18:57 | 42.74202 | 8.93267 | 13529 ft | 296 kts | 49° |
| 2026-04-30 18:57 | 42.75703 | 8.95928 | 14080 ft | 315 kts | 49° |
| 2026-04-30 18:57 | 42.77255 | 8.98704 | 14623 ft | 334 kts | 49° |
| 2026-04-30 18:58 | 42.80647 | 9.04812 | 15976 ft | 359 kts | 49° |
| 2026-04-30 18:58 | 42.82343 | 9.07882 | 16805 ft | 363 kts | 49° |
| 2026-04-30 18:58 | 42.83907 | 9.10715 | 17547 ft | 367 kts | 49° |
| 2026-04-30 18:59 | 42.87165 | 9.16615 | 18939 ft | 376 kts | 49° |
| 2026-04-30 19:00 | 42.88831 | 9.28571 | 21069 ft | 406 kts | 99° |
| 2026-04-30 19:00 | 42.88182 | 9.32856 | 21635 ft | 414 kts | 99° |
| 2026-04-30 19:00 | 42.86887 | 9.41666 | 22846 ft | 425 kts | 98° |
| 2026-04-30 19:01 | 42.85632 | 9.50715 | 24071 ft | 434 kts | 98° |
| 2026-04-30 19:01 | 42.84998 | 9.55315 | 24628 ft | 439 kts | 98° |
| 2026-04-30 19:02 | 42.83723 | 9.64496 | 25753 ft | 447 kts | 98° |
| 2026-04-30 19:02 | 42.82337 | 9.74416 | 26824 ft | 456 kts | 99° |
| 2026-04-30 19:03 | 42.80923 | 9.84445 | 27815 ft | 464 kts | 99° |
| 2026-04-30 19:03 | 42.79489 | 9.94602 | 28746 ft | 473 kts | 99° |
| 2026-04-30 19:04 | 42.78019 | 10.04966 | 29133 ft | 477 kts | 99° |
| 2026-04-30 19:05 | 42.75127 | 10.25198 | 29139 ft | 478 kts | 99° |
| 2026-04-30 19:06 | 42.72762 | 10.45618 | 29138 ft | 475 kts | 90° |
| 2026-04-30 19:06 | 42.72139 | 10.61279 | 28556 ft | 473 kts | 96° |
| 2026-04-30 19:07 | 42.69278 | 10.70966 | 26449 ft | 480 kts | 122° |
| 2026-04-30 19:07 | 42.67276 | 10.75232 | 25756 ft | 474 kts | 123° |
| 2026-04-30 19:08 | 42.63203 | 10.83824 | 24322 ft | 463 kts | 122° |
| 2026-04-30 19:08 | 42.59246 | 10.92360 | 23068 ft | 448 kts | 122° |
| 2026-04-30 19:08 | 42.57328 | 10.96518 | 22463 ft | 441 kts | 122° |
| 2026-04-30 19:09 | 42.53586 | 11.04630 | 21309 ft | 427 kts | 122° |
| 2026-04-30 19:09 | 42.51753 | 11.08591 | 20764 ft | 420 kts | 121° |
| 2026-04-30 19:09 | 42.49974 | 11.12435 | 20241 ft | 414 kts | 121° |
| 2026-04-30 19:10 | 42.46506 | 11.19912 | 19557 ft | 392 kts | 121° |
| 2026-04-30 19:10 | 42.43535 | 11.27058 | 19000 ft | 372 kts | 111° |
| 2026-04-30 19:11 | 42.42493 | 11.30647 | 18645 ft | 366 kts | 108° |
| 2026-04-30 19:11 | 42.40695 | 11.37298 | 17969 ft | 355 kts | 108° |
| 2026-04-30 19:11 | 42.39788 | 11.40635 | 17628 ft | 350 kts | 108° |
| 2026-04-30 19:12 | 42.38903 | 11.43867 | 17304 ft | 345 kts | 108° |
| 2026-04-30 19:12 | 42.38044 | 11.46988 | 16996 ft | 341 kts | 108° |
| 2026-04-30 19:12 | 42.37207 | 11.50013 | 16697 ft | 336 kts | 108° |
| 2026-04-30 19:13 | 42.35568 | 11.55927 | 16123 ft | 327 kts | 108° |
| 2026-04-30 19:13 | 42.34307 | 11.60460 | 15699 ft | 320 kts | 108° |
| 2026-04-30 19:13 | 42.33529 | 11.63255 | 15437 ft | 315 kts | 108° |
| 2026-04-30 19:14 | 42.32743 | 11.66080 | 15169 ft | 311 kts | 109° |
| 2026-04-30 19:14 | 42.31981 | 11.68823 | 14879 ft | 307 kts | 108° |
| 2026-04-30 19:14 | 42.31223 | 11.71554 | 14583 ft | 304 kts | 108° |
| 2026-04-30 19:14 | 42.30450 | 11.74327 | 14044 ft | 312 kts | 108° |
| 2026-04-30 19:15 | 42.29636 | 11.77256 | 13273 ft | 325 kts | 109° |
| 2026-04-30 19:15 | 42.27895 | 11.83465 | 11689 ft | 333 kts | 109° |
| 2026-04-30 19:15 | 42.27024 | 11.86554 | 10890 ft | 324 kts | 109° |
| 2026-04-30 19:16 | 42.26168 | 11.89592 | 10082 ft | 315 kts | 109° |
| 2026-04-30 19:16 | 42.25396 | 11.92330 | 9331 ft | 308 kts | 109° |
| 2026-04-30 19:16 | 42.23883 | 11.97696 | 7813 ft | 295 kts | 109° |
| 2026-04-30 19:17 | 42.23125 | 12.00369 | 7035 ft | 289 kts | 108° |
| 2026-04-30 19:17 | 42.21684 | 12.05452 | 6281 ft | 250 kts | 108° |
| 2026-04-30 19:17 | 42.21050 | 12.07696 | 6021 ft | 234 kts | 108° |
| 2026-04-30 19:18 | 42.20254 | 12.10508 | 5651 ft | 218 kts | 108° |
| 2026-04-30 19:18 | 42.19299 | 12.13895 | 5219 ft | 219 kts | 108° |
| 2026-04-30 19:18 | 42.18718 | 12.15949 | 4938 ft | 217 kts | 108° |
| 2026-04-30 19:19 | 42.18147 | 12.17948 | 4699 ft | 215 kts | 108° |
| 2026-04-30 19:19 | 42.17567 | 12.19977 | 4436 ft | 214 kts | 107° |
| 2026-04-30 19:19 | 42.16401 | 12.24106 | 3865 ft | 211 kts | 108° |
| 2026-04-30 19:20 | 42.15853 | 12.26035 | 3585 ft | 209 kts | 108° |
| 2026-04-30 19:20 | 42.15307 | 12.27941 | 3333 ft | 208 kts | 108° |
| 2026-04-30 19:20 | 42.14224 | 12.31711 | 2978 ft | 195 kts | 108° |
| 2026-04-30 19:21 | 42.13692 | 12.33570 | 2985 ft | 193 kts | 108° |
| 2026-04-30 19:21 | 42.11972 | 12.36885 | 2964 ft | 198 kts | 137° |
| 2026-04-30 19:22 | 42.09389 | 12.39098 | 3005 ft | 214 kts | 148° |
| 2026-04-30 19:22 | 42.05494 | 12.41864 | 2927 ft | 161 kts | 149° |
| 2026-04-30 19:23 | 42.02166 | 12.44168 | 3002 ft | 157 kts | 150° |
| 2026-04-30 19:24 | 42.00156 | 12.45552 | 2977 ft | 157 kts | 150° |
| 2026-04-30 19:24 | 41.99175 | 12.46227 | 2978 ft | 157 kts | 150° |
| 2026-04-30 19:24 | 41.97229 | 12.47565 | 2970 ft | 157 kts | 150° |
| 2026-04-30 19:25 | 41.94278 | 12.49595 | 2972 ft | 158 kts | 150° |
| 2026-04-30 19:26 | 41.92170 | 12.51049 | 2764 ft | 158 kts | 150° |
| 2026-04-30 19:26 | 41.90092 | 12.52480 | 2332 ft | 154 kts | 150° |
| 2026-04-30 19:26 | 41.89118 | 12.53147 | 2129 ft | 154 kts | 151° |
| 2026-04-30 19:27 | 41.87136 | 12.54507 | 1717 ft | 153 kts | 150° |
| 2026-04-30 19:27 | 41.85120 | 12.55903 | 1293 ft | 152 kts | 150° |
| 2026-04-30 19:28 | 41.84154 | 12.56570 | 1089 ft | 152 kts | 150° |
| 2026-04-30 19:28 | 41.82236 | 12.57898 | 684 ft | 149 kts | 151° |
| 2026-04-30 19:29 | 41.80229 | 12.59286 | 366 ft | 119 kts | 152° |
| 2026-04-30 19:29 | 41.79717 | 12.59655 | 403 ft | 17 kts | 179° |
| 2026-04-30 19:30 | 41.79638 | 12.59595 | 402 ft | 2 kts | 236° |
| 2026-04-30 19:30 | 41.79659 | 12.59492 | 398 ft | 10 kts | 324° |
| 2026-04-30 19:31 | 41.79847 | 12.59350 | 385 ft | 20 kts | 334° |
| 2026-04-30 19:31 | 41.79977 | 12.59252 | 374 ft | 19 kts | 331° |
| 2026-04-30 19:31 | 41.80167 | 12.59104 | 362 ft | 9 kts | 275° |
| 2026-04-30 19:32 | 41.80141 | 12.59003 | 361 ft | 11 kts | 234° |
| 2026-04-30 19:32 | 41.80083 | 12.58910 | 361 ft | 12 kts | 237° |
| 2026-04-30 19:32 | 41.80038 | 12.58835 | 361 ft | 6 kts | 214° |
| 2026-04-30 19:32 | 41.80008 | 12.58847 | 363 ft | 3 kts | 148° |
| 2026-04-30 19:33 | 41.79994 | 12.58863 | 364 ft | 1 kts | 136° |
| 2026-04-30 19:33 | 41.79991 | 12.58868 | 364 ft | 0 kts | 129° |
| 2026-04-30 19:33 | 41.79988 | 12.58872 | 364 ft | 1 kts | 123° |
| 2026-04-30 19:33 | 41.79988 | 12.58873 | 364 ft | 0 kts | 123° |